ADDS TAF Data INFO
IDs: Format: Raw Decoded Include METARs

Data at: 1154 UTC 12 Dec 2017

TAF ETSI 121115Z 1212/1221 26007KT 9999 NSW SCT020 BKN040
  TEMPO 1212/1217 27010G20KT 6000 -SHSNRA SCT010 BKN020 BKN180